createdAt,value
2022-12-24T00:01:55.647Z,10.20
2022-12-24T00:09:22.111Z,10.20
2022-12-24T00:11:50.256Z,10.20
2022-12-24T00:14:18.433Z,10.30
2022-12-24T00:16:46.845Z,10.30
2022-12-24T00:19:15.088Z,10.20
2022-12-24T00:21:44.762Z,10.20
2022-12-24T00:24:13.003Z,10.20
2022-12-24T00:26:41.130Z,12.20
2022-12-24T00:29:10.278Z,10.30
2022-12-24T00:31:38.879Z,10.40
2022-12-24T00:34:08.674Z,10.40
2022-12-24T00:36:36.867Z,10.50
2022-12-24T00:39:07.168Z,8.40
2022-12-24T00:41:35.320Z,10.40
2022-12-24T00:44:06.097Z,10.40
2022-12-24T00:46:35.724Z,10.40
2022-12-24T00:49:04.915Z,10.40
2022-12-24T00:51:34.219Z,10.30
2022-12-24T00:54:02.508Z,10.30
2022-12-24T00:56:33.070Z,11.00
2022-12-24T00:59:01.750Z,10.20
2022-12-24T01:01:30.462Z,10.20
2022-12-24T01:06:41.184Z,10.20
2022-12-24T01:09:09.669Z,10.20
2022-12-24T01:11:39.382Z,10.20
2022-12-24T01:14:07.741Z,10.20
2022-12-24T01:16:38.207Z,10.10
2022-12-24T01:19:06.800Z,10.10
2022-12-24T01:24:04.481Z,10.10
2022-12-24T01:26:32.715Z,10.00
2022-12-24T01:31:31.647Z,10.00
2022-12-24T01:34:00.237Z,10.00
2022-12-24T01:36:28.846Z,10.00
2022-12-24T01:38:57.325Z,10.00
2022-12-24T01:41:43.932Z,9.90
2022-12-24T01:44:22.233Z,10.00
2022-12-24T01:46:55.090Z,10.00
2022-12-24T01:49:23.883Z,10.00
2022-12-24T01:51:56.112Z,10.10
2022-12-24T01:54:29.140Z,10.20
2022-12-24T01:57:02.557Z,10.30
2022-12-24T01:59:33.992Z,10.30
2022-12-24T02:02:03.269Z,10.20
2022-12-24T02:04:37.937Z,10.30
2022-12-24T02:09:37.317Z,10.40
2022-12-24T02:12:07.245Z,10.40
2022-12-24T02:14:38.268Z,10.30
2022-12-24T02:17:14.759Z,10.30
2022-12-24T02:20:21.735Z,10.40
2022-12-24T02:23:20.252Z,11.00
2022-12-24T02:26:19.531Z,6.20
2022-12-24T02:29:20.683Z,10.30
2022-12-24T02:31:54.677Z,10.40
2022-12-24T02:34:29.619Z,10.30
2022-12-24T02:37:01.895Z,10.30
2022-12-24T02:39:36.413Z,10.30
2022-12-24T02:42:09.402Z,10.30
2022-12-24T02:44:43.614Z,10.40
2022-12-24T02:47:15.496Z,10.40
2022-12-24T02:49:46.463Z,10.40
2022-12-24T02:52:31.293Z,10.30
2022-12-24T02:55:02.844Z,10.40
2022-12-24T02:57:42.592Z,10.40
2022-12-24T03:00:13.641Z,10.30
2022-12-24T03:02:56.901Z,10.30
2022-12-24T03:05:34.617Z,9.60
2022-12-24T03:08:07.539Z,10.30
2022-12-24T03:10:42.519Z,10.30
2022-12-24T03:13:14.989Z,10.30
2022-12-24T03:15:45.029Z,10.30
2022-12-24T03:18:18.377Z,10.30
2022-12-24T03:20:50.445Z,10.30
2022-12-24T03:23:18.740Z,10.40
2022-12-24T03:25:47.987Z,10.40
2022-12-24T03:28:19.549Z,10.40
2022-12-24T03:30:50.201Z,10.30
2022-12-24T03:35:49.583Z,10.40
2022-12-24T03:43:14.818Z,10.30
2022-12-24T03:50:41.673Z,10.30
2022-12-24T03:53:10.036Z,10.30
2022-12-24T03:55:40.426Z,10.30
2022-12-24T03:58:09.044Z,10.40
2022-12-24T04:00:37.459Z,10.40
2022-12-24T04:03:06.995Z,10.40
2022-12-24T04:05:35.324Z,10.40
2022-12-24T04:10:34.805Z,10.30
2022-12-24T04:15:32.857Z,10.30
2022-12-24T04:18:01.331Z,10.30
2022-12-24T04:20:30.567Z,10.30
2022-12-24T04:22:59.082Z,10.40
2022-12-24T04:25:28.830Z,10.40
2022-12-24T04:27:56.995Z,10.40
2022-12-24T04:30:25.656Z,10.40
2022-12-24T04:40:43.669Z,10.40
2022-12-24T04:48:10.192Z,10.50
2022-12-24T04:50:38.566Z,10.50
2022-12-24T04:55:37.112Z,10.50
2022-12-24T04:58:05.312Z,10.50
2022-12-24T05:00:33.622Z,10.40
2022-12-24T05:05:31.662Z,10.40
2022-12-24T05:10:29.008Z,10.50
2022-12-24T05:15:28.367Z,10.40
2022-12-24T05:20:26.558Z,10.50
2022-12-24T05:23:15.593Z,10.40
2022-12-24T05:26:01.356Z,10.40
2022-12-24T05:28:31.330Z,10.30
2022-12-24T05:30:59.727Z,10.30
2022-12-24T05:33:27.972Z,10.30
2022-12-24T05:35:56.220Z,10.20
2022-12-24T05:40:53.285Z,10.20
2022-12-24T05:43:21.777Z,10.20
2022-12-24T05:45:52.286Z,10.20
2022-12-24T05:48:20.971Z,10.20
2022-12-24T05:50:50.001Z,10.20
2022-12-24T05:58:15.818Z,10.20
2022-12-24T06:00:51.034Z,10.20
2022-12-24T06:03:20.606Z,10.20
2022-12-24T06:11:15.691Z,10.30
2022-12-24T06:13:44.840Z,10.30
2022-12-24T06:16:15.470Z,10.40
2022-12-24T06:18:46.656Z,10.30
2022-12-24T06:21:17.654Z,10.30
2022-12-24T06:23:47.057Z,10.30
2022-12-24T06:26:17.833Z,10.30
2022-12-24T06:28:46.684Z,10.30
2022-12-24T06:31:17.263Z,10.20
2022-12-24T06:36:18.247Z,10.20
2022-12-24T06:38:46.620Z,10.20
2022-12-24T06:41:15.133Z,10.10
2022-12-24T06:43:46.480Z,10.10
2022-12-24T06:46:14.993Z,10.10
2022-12-24T06:48:44.061Z,10.10
2022-12-24T06:51:14.594Z,10.00
2022-12-24T06:53:52.882Z,10.00
2022-12-24T06:56:22.297Z,10.00
2022-12-24T06:58:50.897Z,10.00
2022-12-24T07:01:21.276Z,10.00
2022-12-24T07:03:50.039Z,10.00
2022-12-24T07:06:25.324Z,10.00
2022-12-24T07:08:53.704Z,10.00
2022-12-24T07:11:22.702Z,9.90
2022-12-24T07:13:51.069Z,9.90
2022-12-24T07:16:19.799Z,9.90
2022-12-24T07:18:48.153Z,9.90
2022-12-24T07:21:16.544Z,9.80
2022-12-24T07:23:46.182Z,9.80
2022-12-24T07:26:14.412Z,9.80
2022-12-24T07:31:11.007Z,9.70
2022-12-24T07:36:16.836Z,9.70
2022-12-24T07:41:17.643Z,9.60
2022-12-24T07:43:46.401Z,9.60
2022-12-24T07:46:14.869Z,9.60
2022-12-24T07:48:58.915Z,9.50
2022-12-24T07:51:28.573Z,9.50
2022-12-24T07:56:26.971Z,9.50
2022-12-24T07:58:55.302Z,9.50
2022-12-24T08:01:23.549Z,9.50
2022-12-24T08:06:23.826Z,9.50
2022-12-24T08:16:19.890Z,9.50
2022-12-24T08:18:48.533Z,9.50
2022-12-24T08:26:14.215Z,9.60
2022-12-24T08:31:13.627Z,9.60
2022-12-24T08:33:41.868Z,9.60
2022-12-24T08:36:10.625Z,9.60
2022-12-24T08:41:07.726Z,9.60
2022-12-24T08:43:36.017Z,9.70
2022-12-24T08:46:07.165Z,9.60
2022-12-24T08:51:08.699Z,9.60
2022-12-24T08:56:07.433Z,9.70
2022-12-24T09:01:12.788Z,9.70
2022-12-24T09:03:41.588Z,9.70
2022-12-24T09:06:11.028Z,9.70
2022-12-24T09:11:09.228Z,9.70
2022-12-24T09:18:37.162Z,7.80
2022-12-24T09:21:09.228Z,9.70
2022-12-24T09:29:35.693Z,9.70
2022-12-24T09:32:06.106Z,9.80
2022-12-24T09:34:34.272Z,9.80
2022-12-24T09:37:03.147Z,9.80
2022-12-24T09:39:31.311Z,9.80
2022-12-24T09:42:09.102Z,9.80
2022-12-24T09:44:45.424Z,9.70
2022-12-24T09:47:24.113Z,9.80
2022-12-24T09:49:56.648Z,9.70
2022-12-24T09:52:31.081Z,9.70
2022-12-24T09:55:06.731Z,9.90
2022-12-24T09:57:39.056Z,9.80
2022-12-24T10:00:17.955Z,9.80
2022-12-24T10:02:48.219Z,9.80
2022-12-24T10:05:19.564Z,9.80
2022-12-24T10:07:56.371Z,9.80
2022-12-24T10:10:38.366Z,9.80
2022-12-24T10:13:14.926Z,9.80
2022-12-24T10:15:51.431Z,9.90
2022-12-24T10:18:34.938Z,9.90
2022-12-24T10:21:12.311Z,9.80
2022-12-24T10:23:45.572Z,9.90
2022-12-24T10:26:19.467Z,9.90
2022-12-24T10:28:52.370Z,10.00
2022-12-24T10:31:22.082Z,10.00
2022-12-24T10:33:58.996Z,9.90
2022-12-24T10:36:30.396Z,9.90
2022-12-24T10:41:36.369Z,9.80
2022-12-24T10:44:06.435Z,9.80
2022-12-24T10:46:39.091Z,9.70
2022-12-24T10:49:13.988Z,9.70
2022-12-24T10:51:47.591Z,9.60
2022-12-24T10:54:26.257Z,9.60
2022-12-24T10:56:59.816Z,9.50
2022-12-24T10:59:31.028Z,9.70
2022-12-24T11:02:00.923Z,9.70
2022-12-24T11:04:32.801Z,9.70
2022-12-24T11:07:06.668Z,9.60
2022-12-24T11:09:36.617Z,9.70
2022-12-24T11:12:15.034Z,9.70
2022-12-24T11:17:22.610Z,9.80
2022-12-24T11:19:53.786Z,9.90
2022-12-24T11:22:25.649Z,9.90
2022-12-24T11:25:01.815Z,9.90
2022-12-24T11:27:33.920Z,10.10
2022-12-24T11:30:25.525Z,10.00
2022-12-24T11:33:19.138Z,10.10
2022-12-24T11:35:54.484Z,10.40
2022-12-24T11:38:26.337Z,10.40
2022-12-24T11:41:06.519Z,10.40
2022-12-24T11:43:48.082Z,10.40
2022-12-24T11:46:20.801Z,10.30
2022-12-24T11:48:52.124Z,10.30
2022-12-24T11:51:27.711Z,10.40
2022-12-24T11:54:03.537Z,10.40
2022-12-24T11:56:38.329Z,10.40
2022-12-24T11:59:17.190Z,11.80
2022-12-24T12:04:22.293Z,10.50
2022-12-24T12:06:56.768Z,10.30
2022-12-24T12:09:29.470Z,10.30
2022-12-24T12:12:01.493Z,10.10
2022-12-24T12:14:34.185Z,10.10
2022-12-24T12:17:08.715Z,10.10
2022-12-24T12:19:43.956Z,10.00
2022-12-24T12:22:28.443Z,10.00
2022-12-24T12:25:01.719Z,9.90
2022-12-24T12:27:35.213Z,9.90
2022-12-24T12:30:05.683Z,9.90
2022-12-24T12:32:47.713Z,9.90
2022-12-24T12:35:36.229Z,9.90
2022-12-24T12:38:10.328Z,9.90
2022-12-24T12:41:02.686Z,9.90
2022-12-24T12:43:42.473Z,9.90
2022-12-24T12:46:28.806Z,9.90
2022-12-24T12:49:11.937Z,9.90
2022-12-24T12:51:46.378Z,9.90
2022-12-24T12:54:30.454Z,10.00
2022-12-24T12:57:06.074Z,10.00
2022-12-24T12:59:38.216Z,10.00
2022-12-24T13:02:24.144Z,10.00
2022-12-24T13:05:27.129Z,10.10
2022-12-24T13:08:28.301Z,9.80
2022-12-24T13:11:10.466Z,10.10
2022-12-24T13:14:05.717Z,14.80
2022-12-24T13:16:55.333Z,10.10
2022-12-24T13:19:47.500Z,10.10
2022-12-24T13:22:17.913Z,10.10
2022-12-24T13:24:52.388Z,10.10
2022-12-24T13:27:26.057Z,10.10
2022-12-24T13:29:56.973Z,10.10
2022-12-24T13:32:51.327Z,10.10
2022-12-24T13:35:38.275Z,10.20
2022-12-24T13:38:40.601Z,10.10
2022-12-24T13:41:58.155Z,10.10
2022-12-24T13:44:33.207Z,10.00
2022-12-24T13:47:25.420Z,10.00
2022-12-24T13:49:58.892Z,10.00
2022-12-24T13:52:30.260Z,8.30
2022-12-24T13:55:15.872Z,10.10
2022-12-24T13:57:49.297Z,10.20
2022-12-24T14:00:31.774Z,10.10
2022-12-24T14:03:05.158Z,10.20
2022-12-24T14:05:38.202Z,10.20
2022-12-24T14:08:10.543Z,9.30
2022-12-24T14:10:43.414Z,10.00
2022-12-24T14:13:45.153Z,9.90
2022-12-24T14:16:18.857Z,9.90
2022-12-24T14:18:50.960Z,9.90
2022-12-24T14:21:23.860Z,9.80
2022-12-24T14:23:56.271Z,9.80
2022-12-24T14:26:28.965Z,9.80
2022-12-24T14:29:01.374Z,9.90
2022-12-24T14:34:11.111Z,9.90
2022-12-24T14:36:40.611Z,9.90
2022-12-24T14:39:12.785Z,10.00
2022-12-24T14:41:52.842Z,10.00
2022-12-24T14:44:35.616Z,9.90
2022-12-24T14:47:17.133Z,9.90
2022-12-24T14:50:02.389Z,9.80
2022-12-24T14:53:03.876Z,9.80
2022-12-24T14:55:31.602Z,9.60
2022-12-24T14:58:41.259Z,9.60
2022-12-24T15:01:22.680Z,7.30
2022-12-24T15:04:16.725Z,9.50
2022-12-24T15:06:49.520Z,9.40
2022-12-24T15:09:21.524Z,9.40
2022-12-24T15:11:52.656Z,9.30
2022-12-24T15:14:22.465Z,9.30
2022-12-24T15:16:55.697Z,9.20
2022-12-24T15:19:28.156Z,9.10
2022-12-24T15:21:57.121Z,9.10
2022-12-24T15:26:55.832Z,9.10
2022-12-24T15:29:26.269Z,9.10
2022-12-24T15:31:56.949Z,9.00
2022-12-24T15:34:37.315Z,9.00
2022-12-24T15:37:08.638Z,8.90
2022-12-24T15:39:37.157Z,9.00
2022-12-24T15:42:18.734Z,8.90
2022-12-24T15:44:56.759Z,8.80
2022-12-24T15:47:37.736Z,7.00
2022-12-24T15:50:16.963Z,8.80
2022-12-24T15:52:46.380Z,8.70
2022-12-24T15:55:29.132Z,8.80
2022-12-24T15:57:58.045Z,8.80
2022-12-24T16:00:31.201Z,8.70
2022-12-24T16:08:30.299Z,8.70
2022-12-24T16:11:19.439Z,8.70
2022-12-24T16:14:09.015Z,8.70
2022-12-24T16:16:40.983Z,8.70
2022-12-24T16:19:18.012Z,8.70
2022-12-24T16:24:19.399Z,8.70
2022-12-24T16:29:19.740Z,8.70
2022-12-24T16:31:51.409Z,8.70
2022-12-24T16:34:20.742Z,8.70
2022-12-24T16:39:24.236Z,8.70
2022-12-24T16:42:10.748Z,8.60
2022-12-24T16:44:39.000Z,8.60
2022-12-24T16:47:11.066Z,8.60
2022-12-24T16:52:17.573Z,8.60
2022-12-24T16:57:15.231Z,8.60
2022-12-24T17:02:15.159Z,8.60
2022-12-24T17:04:44.025Z,8.60
2022-12-24T17:07:15.355Z,8.60
2022-12-24T17:09:43.732Z,8.60
2022-12-24T17:12:13.853Z,8.60
2022-12-24T17:14:43.151Z,8.60
2022-12-24T17:17:20.825Z,8.60
2022-12-24T17:22:19.926Z,8.60
2022-12-24T17:29:45.174Z,8.70
2022-12-24T17:32:13.263Z,8.70
2022-12-24T17:34:41.397Z,8.70
2022-12-24T17:42:08.193Z,8.70
2022-12-24T17:49:35.089Z,8.70
2022-12-24T17:52:04.743Z,8.70
2022-12-24T17:54:33.166Z,8.70
2022-12-24T17:57:03.161Z,8.70
2022-12-24T18:09:31.691Z,8.70
2022-12-24T18:12:01.068Z,8.70
2022-12-24T18:14:31.196Z,8.70
2022-12-24T18:16:59.634Z,8.60
2022-12-24T18:19:28.104Z,8.60
2022-12-24T18:21:56.631Z,8.60
2022-12-24T18:24:34.430Z,8.60
2022-12-24T18:35:28.912Z,8.70
2022-12-24T18:40:54.568Z,8.60
2022-12-24T18:43:23.656Z,8.60
2022-12-24T18:45:54.261Z,8.60
2022-12-24T18:48:22.475Z,8.60
2022-12-24T18:50:59.462Z,8.60
2022-12-24T18:53:28.373Z,8.50
2022-12-24T18:56:05.132Z,8.60
2022-12-24T18:58:48.324Z,8.60
2022-12-24T19:01:21.415Z,8.70
2022-12-24T19:03:52.163Z,6.80
2022-12-24T19:06:30.491Z,8.60
2022-12-24T19:09:01.976Z,8.60
2022-12-24T19:11:34.969Z,8.60
2022-12-24T19:14:13.399Z,8.60
2022-12-24T19:16:44.575Z,8.60
2022-12-24T19:24:14.562Z,8.50
2022-12-24T19:31:40.803Z,8.50
2022-12-24T19:34:12.488Z,8.50
2022-12-24T19:39:32.267Z,8.50
2022-12-24T19:50:01.445Z,8.50
2022-12-24T19:52:35.645Z,8.40
2022-12-24T19:55:04.122Z,8.40
2022-12-24T19:57:32.386Z,8.40
2022-12-24T20:03:14.474Z,8.40
2022-12-24T20:05:45.759Z,8.40
2022-12-24T20:10:48.849Z,8.40
2022-12-24T20:13:17.321Z,8.30
2022-12-24T20:15:56.185Z,8.30
2022-12-24T20:18:24.313Z,8.30
2022-12-24T20:21:01.795Z,8.20
2022-12-24T20:23:37.435Z,8.20
2022-12-24T20:26:07.478Z,8.20
2022-12-24T20:31:32.166Z,8.20
2022-12-24T20:34:03.459Z,8.20
2022-12-24T20:36:56.178Z,8.30
2022-12-24T20:50:17.437Z,8.20
2022-12-24T20:52:51.680Z,8.20
2022-12-24T20:55:21.420Z,8.20
2022-12-24T20:57:50.168Z,8.20
2022-12-24T21:00:30.783Z,8.20
2022-12-24T21:03:00.284Z,8.10
2022-12-24T21:08:05.900Z,8.10
2022-12-24T21:10:34.616Z,8.10
2022-12-24T21:13:38.317Z,8.10
2022-12-24T21:16:08.111Z,8.30
2022-12-24T21:21:05.027Z,8.20
2022-12-24T21:23:35.195Z,8.20
2022-12-24T21:26:05.627Z,6.80
2022-12-24T21:28:34.367Z,8.10
2022-12-24T21:31:13.496Z,8.20
2022-12-24T21:36:13.205Z,8.20
2022-12-24T21:41:13.433Z,8.10
2022-12-24T21:43:41.579Z,8.10
2022-12-24T21:46:10.754Z,8.10
2022-12-24T21:48:56.805Z,8.20
2022-12-24T21:51:26.311Z,8.20
2022-12-24T21:54:10.439Z,8.20
2022-12-24T21:56:52.530Z,8.20
2022-12-24T21:59:26.184Z,8.20
2022-12-24T22:01:55.910Z,8.10
2022-12-24T22:07:10.222Z,8.10
2022-12-24T22:09:57.885Z,8.70
2022-12-24T22:12:26.036Z,8.10
2022-12-24T22:14:54.279Z,8.10
2022-12-24T22:17:25.419Z,8.10
2022-12-24T22:19:54.471Z,8.00
2022-12-24T22:22:23.041Z,8.20
2022-12-24T22:24:52.788Z,8.20
2022-12-24T22:27:20.869Z,8.10
2022-12-24T22:29:49.117Z,8.10
2022-12-24T22:32:17.188Z,8.40
2022-12-24T22:34:45.520Z,8.00
2022-12-24T22:37:13.834Z,8.00
2022-12-24T22:42:11.665Z,8.00
2022-12-24T22:44:39.849Z,8.00
2022-12-24T22:47:08.075Z,8.00
2022-12-24T22:52:06.055Z,5.30
2022-12-24T22:54:34.388Z,8.00
2022-12-24T22:57:02.673Z,8.00
2022-12-24T22:59:32.265Z,7.20
2022-12-24T23:02:00.649Z,8.00
2022-12-24T23:04:29.003Z,6.90
2022-12-24T23:09:25.465Z,8.10
2022-12-24T23:14:41.157Z,8.10
2022-12-24T23:17:11.553Z,8.10
2022-12-24T23:19:40.093Z,8.10
2022-12-24T23:22:08.576Z,8.10
2022-12-24T23:27:06.706Z,8.00
2022-12-24T23:29:35.238Z,8.00
2022-12-24T23:32:03.865Z,8.00
2022-12-24T23:37:02.077Z,8.00
2022-12-24T23:39:30.270Z,8.00
2022-12-24T23:41:58.436Z,8.00
2022-12-24T23:47:00.931Z,8.00
2022-12-24T23:49:29.206Z,8.00
2022-12-24T23:51:58.894Z,7.90
2022-12-24T23:56:55.747Z,7.80
2022-12-24T23:59:23.997Z,7.50
